createdAt,value
2022-09-01T00:03:24.344Z,100028.84
2022-09-01T00:08:28.453Z,100023.75
2022-09-01T00:13:33.241Z,100015.38
2022-09-01T00:18:36.043Z,100015.53
2022-09-01T00:23:38.123Z,100008.81
2022-09-01T00:28:40.571Z,100019.88
2022-09-01T00:33:42.665Z,100008.75
2022-09-01T00:38:44.607Z,100012.13
2022-09-01T00:43:52.481Z,100013.16
2022-09-01T00:49:02.504Z,100007.22
2022-09-01T00:54:06.937Z,100009.75
2022-09-01T00:59:11.701Z,100011.41
2022-09-01T01:04:17.035Z,100011.41
2022-09-01T01:09:22.452Z,100002.16
2022-09-01T01:14:24.185Z,100007.34
2022-09-01T01:20:00.037Z,100005.78
2022-09-01T01:25:02.450Z,100003.38
2022-09-01T01:30:09.950Z,99999.97
2022-09-01T01:35:14.827Z,99995.69
2022-09-01T01:40:22.102Z,99995.69
2022-09-01T01:45:25.534Z,99995.69
2022-09-01T01:50:33.470Z,99983.88
2022-09-01T01:55:35.559Z,99986.47
2022-09-01T02:00:38.337Z,99977.22
2022-09-01T02:05:40.512Z,99980.63
2022-09-01T02:10:45.721Z,99974.69
2022-09-01T02:15:53.749Z,99978.22
2022-09-01T02:20:56.573Z,99968.09
2022-09-01T02:26:16.008Z,99968.97
2022-09-01T02:31:20.970Z,99980.88
2022-09-01T02:36:25.301Z,99984.22
2022-09-01T02:41:30.155Z,99973.19
2022-09-01T02:46:33.120Z,99973.19
2022-09-01T02:51:34.807Z,99977.47
2022-09-01T02:56:36.699Z,99984.25
2022-09-01T03:01:40.098Z,99987.66
2022-09-01T03:06:42.372Z,99992.81
2022-09-01T03:11:47.891Z,99986.06
2022-09-01T03:16:50.253Z,100004.72
2022-09-01T03:21:52.232Z,99994.53
2022-09-01T03:26:58.162Z,99986.06
2022-09-01T03:31:59.945Z,99986.03
2022-09-01T03:37:03.597Z,99972.53
2022-09-01T03:42:05.620Z,99976.81
2022-09-01T03:47:15.417Z,99985.38
2022-09-01T03:52:17.906Z,99976.06
2022-09-01T03:57:20.269Z,99975.22
2022-09-01T04:02:22.221Z,99971.81
2022-09-01T04:07:27.523Z,99972.75
2022-09-01T04:12:29.913Z,99972.75
2022-09-01T04:17:50.461Z,99976.19
2022-09-01T04:22:52.752Z,99972.91
2022-09-01T04:27:55.474Z,99972.97
2022-09-01T04:32:58.360Z,99983.06
2022-09-01T04:38:00.277Z,99984.78
2022-09-01T04:43:02.032Z,99982.16
2022-09-01T04:48:05.705Z,99987.09
2022-09-01T04:53:07.776Z,99986.19
2022-09-01T04:58:19.000Z,99984.38
2022-09-01T05:03:23.491Z,99993.63
2022-09-01T05:08:32.696Z,99987.13
2022-09-01T05:13:39.770Z,99992.13
2022-09-01T05:18:48.939Z,99997.88
2022-09-01T05:23:52.889Z,99995.88
2022-09-01T05:29:01.146Z,99987.00
2022-09-01T05:34:04.856Z,99990.06
2022-09-01T05:39:07.994Z,99981.31
2022-09-01T05:44:11.523Z,99984.50
2022-09-01T05:49:16.372Z,99987.69
2022-09-01T05:54:23.170Z,99983.44
2022-09-01T05:59:26.614Z,99984.44
2022-09-01T06:04:33.265Z,99984.44
2022-09-01T06:09:42.616Z,99985.94
2022-09-01T06:14:47.706Z,99986.22
2022-09-01T06:19:52.713Z,99995.06
2022-09-01T06:24:59.503Z,99984.28
2022-09-01T06:30:14.928Z,99991.47
2022-09-01T06:35:29.426Z,100000.47
2022-09-01T06:40:32.435Z,99997.47
2022-09-01T06:45:49.852Z,100005.78
2022-09-01T06:56:15.029Z,99991.41
2022-09-01T07:01:19.768Z,99991.00
2022-09-01T07:12:24.793Z,99982.22
2022-09-01T07:17:23.612Z,99980.72
2022-09-01T07:27:51.633Z,99992.06
2022-09-01T07:32:55.696Z,99986.53
2022-09-01T07:43:27.290Z,99987.06
2022-09-01T07:54:13.968Z,99994.91
2022-09-01T07:59:16.019Z,99991.50
2022-09-01T08:04:27.227Z,100000.31
2022-09-01T08:09:37.609Z,100005.44
2022-09-01T08:14:41.919Z,99999.09
2022-09-01T08:19:44.337Z,100011.84
2022-09-01T08:24:53.412Z,99998.31
2022-09-01T08:29:57.041Z,100006.63
2022-09-01T08:34:58.716Z,99999.03
2022-09-01T08:40:00.783Z,100004.09
2022-09-01T08:45:21.549Z,99997.19
2022-09-01T08:50:23.947Z,99991.81
2022-09-01T08:55:47.483Z,99996.03
2022-09-01T09:01:17.469Z,99993.97
2022-09-01T09:06:33.909Z,99988.59
2022-09-01T09:12:01.108Z,99985.50
2022-09-01T09:17:10.659Z,99982.50
2022-09-01T09:22:16.716Z,99974.00
2022-09-01T09:27:37.536Z,99980.06
2022-09-01T09:33:44.680Z,99982.00
2022-09-01T09:38:33.551Z,99980.69
2022-09-01T09:43:42.526Z,99975.53
2022-09-01T09:48:46.442Z,99967.28
2022-09-01T09:53:48.958Z,99971.75
2022-09-01T09:58:53.392Z,99986.53
2022-09-01T10:03:57.763Z,99959.53
2022-09-01T10:09:02.064Z,99961.56
2022-09-01T10:14:09.733Z,99961.47
2022-09-01T10:19:16.323Z,99963.25
2022-09-01T10:24:31.487Z,99961.06
2022-09-01T10:29:49.303Z,99966.25
2022-09-01T10:34:52.092Z,99955.34
2022-09-01T10:40:14.862Z,99955.41
2022-09-01T10:45:31.000Z,99945.75
2022-09-01T10:50:36.569Z,99948.84
2022-09-01T10:56:03.645Z,99939.97
2022-09-01T11:01:49.876Z,99938.72
2022-09-01T11:12:47.586Z,99930.72
2022-09-01T11:17:51.920Z,99941.16
2022-09-01T11:22:59.832Z,99930.84
2022-09-01T11:28:08.325Z,99936.47
2022-09-01T11:33:35.148Z,99937.28
2022-09-01T11:38:51.245Z,99930.78
2022-09-01T11:43:58.529Z,99919.50
2022-09-01T11:49:07.176Z,99926.19
2022-09-01T11:54:09.170Z,99935.94
2022-09-01T11:59:11.451Z,99928.97
2022-09-01T12:04:19.272Z,99924.34
2022-09-01T12:09:21.228Z,99915.66
2022-09-01T12:14:23.151Z,99920.53
2022-09-01T12:19:28.349Z,99907.97
2022-09-01T12:24:35.508Z,99917.16
2022-09-01T12:29:38.242Z,99919.38
2022-09-01T12:35:05.598Z,99913.69
2022-09-01T12:40:32.836Z,99923.75
2022-09-01T12:45:46.092Z,99913.53
2022-09-01T12:50:48.237Z,99912.63
2022-09-01T12:56:32.563Z,99911.19
2022-09-01T13:01:36.228Z,99917.69
2022-09-01T13:06:38.469Z,99917.59
2022-09-01T13:17:04.396Z,99916.53
2022-09-01T13:22:07.445Z,99908.41
2022-09-01T13:27:26.181Z,99899.22
2022-09-01T13:32:28.630Z,99910.25
2022-09-01T13:37:30.730Z,99903.66
2022-09-01T13:42:33.322Z,99915.81
2022-09-01T13:47:35.442Z,99911.06
2022-09-01T13:52:57.305Z,99913.47
2022-09-01T13:58:00.068Z,99910.13
2022-09-01T14:03:07.541Z,99915.91
2022-09-01T14:08:10.957Z,99918.69
2022-09-01T14:13:13.372Z,99913.81
2022-09-01T14:18:16.410Z,99914.53
2022-09-01T14:23:20.325Z,99911.31
2022-09-01T14:28:23.077Z,99915.34
2022-09-01T14:33:27.262Z,99917.28
2022-09-01T14:38:30.026Z,99910.41
2022-09-01T14:43:33.234Z,99921.97
2022-09-01T14:48:35.392Z,99911.94
2022-09-01T14:53:39.043Z,99916.16
2022-09-01T14:58:42.218Z,99911.28
2022-09-01T15:03:45.977Z,99920.53
2022-09-01T15:08:48.188Z,99932.19
2022-09-01T15:13:52.176Z,99925.63
2022-09-01T15:18:55.513Z,99924.53
2022-09-01T15:23:57.172Z,99930.63
2022-09-01T15:28:58.914Z,99927.44
2022-09-01T15:34:03.227Z,99936.00
2022-09-01T15:39:08.514Z,99938.22
2022-09-01T15:44:11.090Z,99940.63
2022-09-01T15:49:13.216Z,99940.03
2022-09-01T15:54:17.996Z,99936.63
2022-09-01T15:59:19.788Z,99936.78
2022-09-01T16:04:26.897Z,99943.25
2022-09-01T16:09:29.507Z,99951.03
2022-09-01T16:14:32.043Z,99952.31
2022-09-01T16:19:36.893Z,99960.41
2022-09-01T16:24:43.562Z,99957.22
2022-09-01T16:29:48.684Z,99960.88
2022-09-01T16:34:52.195Z,99965.38
2022-09-01T16:40:09.855Z,99959.66
2022-09-01T16:45:36.841Z,99970.88
2022-09-01T16:51:22.217Z,99957.47
2022-09-01T16:56:45.056Z,99973.78
2022-09-01T17:02:13.189Z,99965.31
2022-09-01T17:07:19.145Z,99966.97
2022-09-01T17:12:32.586Z,99970.34
2022-09-01T17:17:40.839Z,99975.88
2022-09-01T17:22:50.879Z,99989.78
2022-09-01T17:28:00.900Z,99999.38
2022-09-01T17:33:35.248Z,100001.97
2022-09-01T17:38:53.929Z,100009.00
2022-09-01T17:43:56.138Z,100014.94
2022-09-01T17:48:57.757Z,100019.97
2022-09-01T17:54:14.949Z,100032.03
2022-09-01T17:59:34.027Z,100051.72
2022-09-01T18:04:45.215Z,100054.91
2022-09-01T18:09:53.519Z,100062.53
2022-09-01T18:15:11.540Z,100072.22
2022-09-01T18:20:31.272Z,100084.94
2022-09-01T18:25:50.661Z,100091.44
2022-09-01T18:30:55.749Z,100095.78
2022-09-01T18:36:28.012Z,100103.47
2022-09-01T18:41:41.490Z,100105.22
2022-09-01T18:46:59.896Z,100108.91
2022-09-01T18:52:07.838Z,100110.84
2022-09-01T18:57:14.274Z,100115.94
2022-09-01T19:02:40.765Z,100120.38
2022-09-01T19:08:07.768Z,100140.25
2022-09-01T19:13:31.582Z,100128.66
2022-09-01T19:18:54.379Z,100140.75
2022-09-01T19:24:27.382Z,100141.78
2022-09-01T19:29:41.268Z,100145.78
2022-09-01T19:34:48.669Z,100147.78
2022-09-01T19:39:54.155Z,100152.25
2022-09-01T19:45:20.793Z,100157.53
2022-09-01T19:50:32.007Z,100151.00
2022-09-01T19:55:53.988Z,100146.88
2022-09-01T20:00:58.588Z,100150.44
2022-09-01T20:06:06.240Z,100153.06
2022-09-01T20:11:14.615Z,100163.41
2022-09-01T20:16:35.377Z,100161.81
2022-09-01T20:21:42.225Z,100152.63
2022-09-01T20:27:14.249Z,100157.81
2022-09-01T20:32:30.363Z,100152.03
2022-09-01T20:37:45.251Z,100164.13
2022-09-01T20:43:06.660Z,100171.00
2022-09-01T20:48:15.409Z,100167.69
2022-09-01T20:53:50.301Z,100166.97
2022-09-01T20:59:10.267Z,100179.75
2022-09-01T21:04:37.557Z,100189.19
2022-09-01T21:09:58.005Z,100191.00
2022-09-01T21:15:09.344Z,100191.88
2022-09-01T21:20:13.924Z,100178.44
2022-09-01T21:25:15.869Z,100184.47
2022-09-01T21:30:19.480Z,100182.84
2022-09-01T21:35:22.034Z,100179.50
2022-09-01T21:40:25.394Z,100185.50
2022-09-01T21:45:27.597Z,100189.78
2022-09-01T21:50:30.026Z,100182.22
2022-09-01T21:55:32.753Z,100182.28
2022-09-01T22:00:39.520Z,100172.19
2022-09-01T22:05:44.030Z,100179.00
2022-09-01T22:10:50.470Z,100174.84
2022-09-01T22:15:53.804Z,100168.09
2022-09-01T22:21:07.089Z,100164.75
2022-09-01T22:26:15.431Z,100169.88
2022-09-01T22:31:19.936Z,100162.31
2022-09-01T22:36:31.240Z,100158.97
2022-09-01T22:41:34.237Z,100158.97
2022-09-01T22:46:37.985Z,100154.84
2022-09-01T22:51:42.358Z,100149.81
2022-09-01T22:56:45.153Z,100149.03
2022-09-01T23:01:47.728Z,100146.50
2022-09-01T23:06:54.050Z,100140.63
2022-09-01T23:11:56.469Z,100137.31
2022-09-01T23:16:58.263Z,100137.28
2022-09-01T23:22:00.392Z,100139.84
2022-09-01T23:27:03.176Z,100139.06
2022-09-01T23:32:05.180Z,100134.88
2022-09-01T23:37:07.579Z,100137.47
2022-09-01T23:42:09.445Z,100141.72
2022-09-01T23:47:11.289Z,100132.47
2022-09-01T23:52:12.927Z,100132.47
2022-09-01T23:57:14.713Z,100131.69
